Flight Track Log - Related Links

Times and Time Zones

All times are in EDT time to prevent confusion due to time zone crossing. See the EGF3059 flight status page for this flight to view local times or setup timezone preferences in your user account.

Time Position Orientation Groundspeed Altitude Reporting Facility
EDT Latitude Longitude Course Direction KTS MPH feet Rate Location/Type
Tue 07:01:00 AM 43.0890 -76.5951 267° West  Level Estimated
Tue 07:02:00 AM 43.0831 -76.7173 266° West  Level Estimated
Tue 07:03:00 AM 43.0771 -76.8394 266° West  Level Estimated
Tue 07:04:00 AM 43.0710 -76.9615 266° West  Level Estimated
Tue 07:05:00 AM 43.0647 -77.0836 266° West  Level Estimated
Tue 07:06:00 AM 43.0583 -77.2056 266° West  Level Estimated
Tue 07:07:00 AM 43.0518 -77.3277 266° West  Level Estimated
Tue 07:08:00 AM 43.0451 -77.4497 266° West  Level Estimated
Tue 07:09:00 AM 43.0383 -77.5716 266° West  Level Estimated
Tue 07:10:00 AM 43.0314 -77.6936 266° West  Level Estimated
Tue 07:11:00 AM 43.0244 -77.8155 266° West  Level Estimated
Tue 07:12:00 AM 43.0172 -77.9374 265° West  Level Estimated
Tue 07:13:00 AM 43.0099 -78.0592 265° West  Level Estimated
Tue 07:14:00 AM 43.0025 -78.1811 265° West  Level Estimated
Tue 07:15:00 AM 42.9949 -78.3029 265° West  Level Estimated
Tue 07:16:00 AM 42.9872 -78.4246 265° West  Level Estimated
Tue 07:17:00 AM 42.9794 -78.5464 265° West  Level Estimated
Tue 07:18:00 AM 42.9715 -78.6681 265° West  Level Estimated
Tue 07:19:00 AM 42.9634 -78.7897 265° West  Level Estimated
Tue 07:20:00 AM 42.9552 -78.9114 265° West  Level Estimated
Tue 07:21:00 AM 42.9468 -79.0330 265° West  Level Estimated
Tue 07:22:00 AM 42.9384 -79.1546 265° West  Level Estimated
Tue 07:23:00 AM 42.9298 -79.2761 265° West  Level Estimated
Tue 07:24:00 AM 42.9211 -79.3976 264° West  Level Estimated
Tue 07:25:00 AM 42.9122 -79.5191 264° West  Level Estimated
Tue 07:26:00 AM 42.9032 -79.6406 264° West  Level Estimated
Tue 07:27:00 AM 42.8941 -79.7620 264° West  Level Estimated
Tue 07:28:00 AM 42.8849 -79.8833 264° West  Level Estimated
Tue 07:29:00 AM 42.8755 -80.0047 264° West  Level Estimated
Tue 07:30:00 AM 42.8660 -80.1260 264° West  Level Estimated
Tue 07:31:00 AM 42.8564 -80.2472 264° West  Level Estimated
Tue 07:32:00 AM 42.8467 -80.3684 264° West  Level Estimated
Tue 07:33:00 AM 42.8368 -80.4896 264° West  Level Estimated
Tue 07:34:00 AM 42.8268 -80.6108 264° West  Level Estimated
Tue 07:35:00 AM 42.8167 -80.7319 264° West  Level Estimated
Tue 07:36:00 AM 42.8064 -80.8529 263° West  Level Estimated
Tue 07:37:00 AM 42.7960 -80.9740 263° West  Level Estimated
Tue 07:38:00 AM 42.7855 -81.0949 263° West  Level Estimated
Tue 07:39:00 AM 42.7749 -81.2159 263° West  Level Estimated
Tue 07:40:00 AM 42.7641 -81.3368 263° West  Level Estimated
Tue 07:41:00 AM 42.7532 -81.4576 263° West  Level Estimated
Tue 07:42:00 AM 42.7422 -81.5785 263° West  Level Estimated
Tue 07:43:00 AM 42.7310 -81.6992 263° West  Level Estimated
Tue 07:44:00 AM 42.7198 -81.8199 263° West  Level Estimated
Tue 07:45:00 AM 42.7084 -81.9406 263° West  Level Estimated
Tue 07:46:00 AM 42.6968 -82.0613 263° West  Level Estimated
Tue 07:47:00 AM 42.6852 -82.1819 263° West  Level Estimated
Tue 07:48:00 AM 42.6734 -82.3024 262° West  Level Estimated
Tue 07:49:00 AM 42.6615 -82.4229 262° West  Level Estimated
Tue 07:50:00 AM 42.6495 -82.5434 262° West  Level Estimated
Tue 07:51:00 AM 42.6373 -82.6638 262° West  Level Estimated
Tue 07:52:00 AM 42.6250 -82.7841 262° West  Level Estimated
Tue 07:53:00 AM 42.6126 -82.9044 262° West  Level Estimated
Tue 07:54:00 AM 42.6001 -83.0247 262° West  Level Estimated
Tue 07:55:00 AM 42.5874 -83.1449 262° West  Level Estimated
Tue 07:56:00 AM 42.5746 -83.2651 262° West  Level Estimated
Tue 07:57:00 AM 42.5617 -83.3852 262° West  Level Estimated
Tue 07:58:00 AM 42.5487 -83.5053 262° West  Level Estimated
Tue 07:59:00 AM 42.5355 -83.6253 262° West  Level Estimated
Tue 08:00:00 AM 42.5222 -83.7453 261° West  Level Estimated
Tue 08:01:00 AM 42.5088 -83.8652 261° West  Level Estimated
Tue 08:02:00 AM 42.4953 -83.9850 261° West  Level Estimated
Tue 08:03:00 AM 42.4816 -84.1049 261° West  Level Estimated
Tue 08:04:00 AM 42.4678 -84.2246 261° West  Level Estimated
Tue 08:05:00 AM 42.4539 -84.3443 261° West  Level Estimated
Tue 08:06:00 AM 42.4398 -84.4640 261° West  Level Estimated
Tue 08:07:00 AM 42.4257 -84.5836 261° West  Level Estimated
Tue 08:08:00 AM 42.4114 -84.7031 261° West  Level Estimated
Tue 08:09:00 AM 42.3970 -84.8226 261° West  Level Estimated
Tue 08:10:00 AM 42.3825 -84.9420 261° West  Level Estimated
Tue 08:11:00 AM 42.3678 -85.0614 261° West  Level Estimated
Tue 08:12:00 AM 42.3530 -85.1808 261° West  Level Estimated
Tue 08:13:00 AM 42.3381 -85.3000 260° West  Level Estimated
Tue 08:14:00 AM 42.3231 -85.4192 260° West  Level Estimated
Tue 08:15:00 AM 42.3079 -85.5384 260° West  Level Estimated
Tue 08:16:00 AM 42.2926 -85.6575 260° West  Level Estimated
Tue 08:17:00 AM 42.2772 -85.7765 260° West  Level Estimated
Tue 08:18:00 AM 42.2617 -85.8955 260° West  Level Estimated
Tue 08:19:00 AM 42.2461 -86.0144 260° West  Level Estimated
Tue 08:20:00 AM 42.2303 -86.1333 260° West  Level Estimated
Tue 08:21:00 AM 42.2144 -86.2521 260° West  Level Estimated
Tue 08:22:00 AM 42.1984 -86.3708 260° West  Level Estimated
Tue 08:23:00 AM 42.1823 -86.4895 260° West  Level Estimated
Tue 08:24:00 AM 42.1660 -86.6081 260° West  Level Estimated
Tue 08:25:00 AM 42.1496 -86.7267 259° West  Level Estimated
Tue 08:26:00 AM 42.1331 -86.8452 259° West  Level Estimated
Tue 08:27:00 AM 42.1165 -86.9636 259° West  Level Estimated
Tue 08:28:00 AM 42.0997 -87.0820 259° West  Level Estimated
Tue 08:29:00 AM 42.0829 -87.2003 259° West  Level Estimated
Tue 08:30:00 AM 42.0659 -87.3186 259° West  Level Estimated
Tue 08:31:00 AM 42.0488 -87.4367 259° West  Level Estimated
Tue 08:32:00 AM 42.0315 -87.5549 259° West  Level Estimated
Tue 08:33:00 AM 42.0142 -87.6729 259° West  Level Estimated
Tue 08:34:00 AM 41.9967 -87.7909 259° West  Level Estimated
Tue 08:35:00 AM 41.9793 -87.9074 259° West  Level Estimated
Tue 08:36:00 AM 41.9793 -87.9074 North  Level Estimated
Tue 08:37:00 AM 41.9793 -87.9074 North  Level Estimated
Tue 08:38:00 AM 41.9793 -87.9074 North  Level Estimated
Tue 08:39:00 AM 41.9793 -87.9074 North  Level Estimated
Tue 08:40:00 AM 41.9793 -87.9074 North  Level Estimated

Login

Don't have an account? Register now (free) for customized features, flight alerts, and more!